createdAt,value
2019-01-25T00:04:39.970Z,-4.90
2019-01-25T00:09:45.164Z,-4.91
2019-01-25T00:14:50.964Z,-4.94
2019-01-25T00:19:56.301Z,-4.93
2019-01-25T00:25:01.603Z,-4.92
2019-01-25T00:30:09.088Z,-4.95
2019-01-25T00:35:14.333Z,-4.96
2019-01-25T00:40:21.276Z,-4.93
2019-01-25T00:45:26.478Z,-4.92
2019-01-25T00:50:31.780Z,-4.90
2019-01-25T00:55:37.149Z,-4.88
2019-01-25T01:00:42.656Z,-4.93
2019-01-25T01:05:48.246Z,-4.93
2019-01-25T01:10:53.493Z,-4.90
2019-01-25T01:15:58.693Z,-4.94
2019-01-25T01:21:04.369Z,-4.94
2019-01-25T01:26:10.557Z,-4.96
2019-01-25T01:31:15.769Z,-4.95
2019-01-25T01:36:21.372Z,-4.89
2019-01-25T01:41:26.931Z,-4.94
2019-01-25T01:46:33.104Z,-4.91
2019-01-25T01:51:39.670Z,-4.91
2019-01-25T01:56:45.405Z,-4.89
2019-01-25T02:01:50.930Z,-4.86
2019-01-25T02:06:57.309Z,-4.89
2019-01-25T02:12:02.923Z,-4.91
2019-01-25T02:17:08.478Z,-4.91
2019-01-25T02:22:13.726Z,-4.92
2019-01-25T02:27:19.071Z,-4.89
2019-01-25T02:32:25.435Z,-4.90
2019-01-25T02:37:30.642Z,-4.88
2019-01-25T02:42:36.161Z,-4.88
2019-01-25T02:47:41.706Z,-4.84
2019-01-25T02:52:47.307Z,-4.85
2019-01-25T02:57:53.598Z,-4.87
2019-01-25T03:02:58.792Z,-4.87
2019-01-25T03:08:04.003Z,-4.87
2019-01-25T03:13:09.209Z,-4.86
2019-01-25T03:18:15.122Z,-4.88
2019-01-25T03:23:20.332Z,-4.89
2019-01-25T03:28:25.547Z,-4.87
2019-01-25T03:33:30.744Z,-4.88
2019-01-25T03:38:36.338Z,-4.89
2019-01-25T03:43:41.531Z,-4.88
2019-01-25T03:48:47.229Z,-4.87
2019-01-25T03:53:52.550Z,-4.85
2019-01-25T03:58:58.088Z,-4.84
2019-01-25T04:04:03.293Z,-4.80
2019-01-25T04:09:10.839Z,-4.81
2019-01-25T04:14:16.052Z,-4.83
2019-01-25T04:19:21.592Z,-4.88
2019-01-25T04:24:26.838Z,-4.87
2019-01-25T04:29:32.046Z,-4.86
2019-01-25T04:34:37.352Z,-4.86
2019-01-25T04:39:42.968Z,-4.86
2019-01-25T04:44:48.293Z,-4.84
2019-01-25T04:49:53.908Z,-4.85
2019-01-25T04:55:01.581Z,-4.86
2019-01-25T05:00:08.333Z,-4.83
2019-01-25T05:05:14.070Z,-4.80
2019-01-25T05:10:19.274Z,-4.80
2019-01-25T05:15:25.342Z,-4.77
2019-01-25T05:20:30.864Z,-4.76
2019-01-25T05:25:36.436Z,-4.74
2019-01-25T05:30:51.229Z,-4.75
2019-01-25T05:35:56.523Z,-4.73
2019-01-25T05:41:01.847Z,-4.72
2019-01-25T05:46:07.086Z,-4.68
2019-01-25T05:51:12.704Z,-4.68
2019-01-25T05:56:17.909Z,-4.69
2019-01-25T06:01:23.086Z,-4.74
2019-01-25T06:06:28.279Z,-4.67
2019-01-25T06:11:37.978Z,-4.66
2019-01-25T06:16:43.665Z,-4.66
2019-01-25T06:21:50.551Z,-4.65
2019-01-25T06:26:55.750Z,-4.63
2019-01-25T06:32:01.410Z,-4.63
2019-01-25T06:37:06.613Z,-4.62
2019-01-25T06:42:11.864Z,-4.65
2019-01-25T06:47:17.150Z,-4.58
2019-01-25T06:52:22.683Z,-4.59
2019-01-25T06:57:43.451Z,-4.62
2019-01-25T07:02:49.179Z,-4.61
2019-01-25T07:07:54.385Z,-4.65
2019-01-25T07:12:59.570Z,-4.65
2019-01-25T07:18:04.788Z,-4.65
2019-01-25T07:23:09.987Z,-4.61
2019-01-25T07:28:15.235Z,-4.66
2019-01-25T07:33:20.539Z,-4.65
2019-01-25T07:38:25.803Z,-4.64
2019-01-25T07:43:31.471Z,-4.69
2019-01-25T07:48:37.130Z,-4.63
2019-01-25T07:53:42.436Z,-4.56
2019-01-25T07:58:47.946Z,-4.50
2019-01-25T08:03:53.219Z,-4.42
2019-01-25T08:08:58.831Z,-4.35
2019-01-25T08:14:04.379Z,-4.42
2019-01-25T08:19:09.661Z,-4.37
2019-01-25T08:24:14.848Z,-4.36
2019-01-25T08:29:27.673Z,-4.23
2019-01-25T08:34:27.260Z,-4.17
2019-01-25T08:39:33.348Z,-4.13
2019-01-25T08:44:38.543Z,-4.11
2019-01-25T08:49:45.065Z,-4.21
2019-01-25T08:54:50.497Z,-4.20
2019-01-25T08:59:56.475Z,-4.25
2019-01-25T09:05:02.075Z,-4.19
2019-01-25T09:10:10.072Z,-4.15
2019-01-25T09:15:22.480Z,-4.05
2019-01-25T09:20:28.560Z,-4.05
2019-01-25T09:25:34.328Z,-3.98
2019-01-25T09:30:39.922Z,-3.86
2019-01-25T09:35:45.107Z,-3.76
2019-01-25T09:40:50.412Z,-3.69
2019-01-25T09:45:55.618Z,-3.61
2019-01-25T09:51:00.804Z,-3.65
2019-01-25T09:56:07.449Z,-3.53
2019-01-25T10:01:13.831Z,-3.44
2019-01-25T10:06:19.272Z,-3.40
2019-01-25T10:11:24.530Z,-3.34
2019-01-25T10:16:30.223Z,-3.34
2019-01-25T10:21:35.448Z,-3.29
2019-01-25T10:26:40.691Z,-3.23
2019-01-25T10:31:45.871Z,-3.30
2019-01-25T10:36:51.461Z,-3.29
2019-01-25T10:41:57.175Z,-3.10
2019-01-25T10:47:03.620Z,-3.08
2019-01-25T10:52:09.215Z,-3.01
2019-01-25T10:57:15.516Z,-3.01
2019-01-25T11:02:21.488Z,-3.02
2019-01-25T11:07:26.722Z,-3.14
2019-01-25T11:12:31.926Z,-3.25
2019-01-25T11:17:37.124Z,-3.22
2019-01-25T11:22:42.360Z,-3.29
2019-01-25T11:27:47.797Z,-3.17
2019-01-25T11:32:54.103Z,-3.22
2019-01-25T11:37:59.295Z,-3.11
2019-01-25T11:43:08.912Z,-3.04
2019-01-25T11:48:14.545Z,-3.15
2019-01-25T11:53:19.931Z,-3.17
2019-01-25T11:58:25.115Z,-3.17
2019-01-25T12:03:30.390Z,-3.15
2019-01-25T12:08:36.967Z,-3.27
2019-01-25T12:13:42.492Z,-3.33
2019-01-25T12:18:48.036Z,-3.34
2019-01-25T12:23:53.351Z,-3.37
2019-01-25T12:28:58.562Z,-3.33
2019-01-25T12:34:03.743Z,-3.33
2019-01-25T12:39:10.363Z,-3.38
2019-01-25T12:44:15.517Z,-3.29
2019-01-25T12:49:21.490Z,-3.28
2019-01-25T12:54:26.719Z,-3.29
2019-01-25T12:59:33.525Z,-3.27
2019-01-25T13:04:38.729Z,-3.22
2019-01-25T13:09:44.295Z,-3.21
2019-01-25T13:14:49.503Z,-3.21
2019-01-25T13:19:55.044Z,-3.19
2019-01-25T13:25:01.646Z,-3.23
2019-01-25T13:30:10.772Z,-3.23
2019-01-25T13:35:17.464Z,-3.22
2019-01-25T13:40:23.611Z,-3.22
2019-01-25T13:45:28.798Z,-3.18
2019-01-25T13:50:34.056Z,-3.17
2019-01-25T13:55:39.732Z,-3.17
2019-01-25T14:00:45.367Z,-3.20
2019-01-25T14:05:50.566Z,-3.17
2019-01-25T14:10:55.922Z,-3.16
2019-01-25T14:16:01.248Z,-3.16
2019-01-25T14:21:07.171Z,-3.21
2019-01-25T14:26:13.278Z,-3.21
2019-01-25T14:31:20.492Z,-3.26
2019-01-25T14:36:27.577Z,-3.29
2019-01-25T14:41:33.154Z,-3.33
2019-01-25T14:46:39.955Z,-3.32
2019-01-25T14:51:45.715Z,-3.36
2019-01-25T14:56:53.262Z,-3.45
2019-01-25T15:02:00.579Z,-3.51
2019-01-25T15:07:07.763Z,-3.55
2019-01-25T15:12:16.435Z,-3.59
2019-01-25T15:17:24.060Z,-3.64
2019-01-25T15:22:32.482Z,-3.71
2019-01-25T15:27:41.239Z,-3.75
2019-01-25T15:32:48.267Z,-3.83
2019-01-25T15:37:55.741Z,-3.97
2019-01-25T15:43:04.265Z,-4.15
2019-01-25T15:48:11.740Z,-4.27
2019-01-25T15:53:19.420Z,-4.43
2019-01-25T15:58:27.879Z,-4.58
2019-01-25T16:03:37.103Z,-4.60
2019-01-25T16:08:45.237Z,-4.69
2019-01-25T16:13:53.704Z,-4.84
2019-01-25T16:19:01.607Z,-4.94
2019-01-25T16:24:09.877Z,-5.04
2019-01-25T16:29:19.369Z,-5.13
2019-01-25T16:34:27.251Z,-5.24
2019-01-25T16:39:35.326Z,-5.36
2019-01-25T16:44:43.674Z,-5.41
2019-01-25T16:49:51.685Z,-5.50
2019-01-25T16:54:59.610Z,-5.55
2019-01-25T17:00:14.159Z,-5.61
2019-01-25T17:05:22.667Z,-5.74
2019-01-25T17:10:28.414Z,-5.79
2019-01-25T17:15:34.079Z,-5.79
2019-01-25T17:20:39.332Z,-5.75
2019-01-25T17:25:44.540Z,-5.73
2019-01-25T17:30:53.573Z,-5.63
2019-01-25T17:36:01.836Z,-5.58
2019-01-25T17:41:10.424Z,-5.60
2019-01-25T17:46:18.559Z,-5.57
2019-01-25T17:51:27.685Z,-5.56
2019-01-25T17:56:35.765Z,-5.51
2019-01-25T18:01:44.135Z,-5.50
2019-01-25T18:06:52.350Z,-5.48
2019-01-25T18:12:00.516Z,-5.46
2019-01-25T18:17:08.762Z,-5.46
2019-01-25T18:22:16.423Z,-5.44
2019-01-25T18:27:25.802Z,-5.37
2019-01-25T18:32:34.871Z,-5.28
2019-01-25T18:37:44.149Z,-5.24
2019-01-25T18:42:53.995Z,-5.24
2019-01-25T18:48:04.168Z,-5.19
2019-01-25T18:53:13.529Z,-5.17
2019-01-25T18:58:22.310Z,-5.15
2019-01-25T19:03:31.482Z,-5.11
2019-01-25T19:08:40.981Z,-5.03
2019-01-25T19:13:51.099Z,-4.96
2019-01-25T19:19:01.342Z,-4.91
2019-01-25T19:24:11.081Z,-4.79
2019-01-25T19:29:20.883Z,-4.68
2019-01-25T19:34:29.999Z,-4.71
2019-01-25T19:39:39.798Z,-4.67
2019-01-25T19:44:49.515Z,-4.65
2019-01-25T19:49:57.988Z,-4.57
2019-01-25T19:55:09.503Z,-4.58
2019-01-25T20:00:25.599Z,-4.59
2019-01-25T20:05:34.191Z,-4.57
2019-01-25T20:10:45.578Z,-4.52
2019-01-25T20:15:54.276Z,-4.45
2019-01-25T20:21:03.507Z,-4.30
2019-01-25T20:26:12.550Z,-4.20
2019-01-25T20:31:21.610Z,-4.16
2019-01-25T20:36:31.449Z,-4.12
2019-01-25T20:41:40.858Z,-3.96
2019-01-25T20:46:49.847Z,-3.93
2019-01-25T20:51:59.100Z,-3.89
2019-01-25T20:57:08.642Z,-3.86
2019-01-25T21:02:19.526Z,-3.85
2019-01-25T21:07:27.928Z,-3.79
2019-01-25T21:12:36.578Z,-3.75
2019-01-25T21:17:45.863Z,-3.70
2019-01-25T21:22:55.405Z,-3.66
2019-01-25T21:28:05.773Z,-3.61
2019-01-25T21:33:15.062Z,-3.60
2019-01-25T21:38:23.880Z,-3.54
2019-01-25T21:43:34.175Z,-3.56
2019-01-25T21:48:42.574Z,-3.38
2019-01-25T21:53:51.263Z,-3.20
2019-01-25T21:58:59.611Z,-3.17
2019-01-25T22:04:07.125Z,-3.15
2019-01-25T22:09:15.119Z,-3.12
2019-01-25T22:14:22.285Z,-3.10
2019-01-25T22:19:29.474Z,-3.08
2019-01-25T22:24:36.637Z,-3.09
2019-01-25T22:29:44.656Z,-3.09
2019-01-25T22:34:51.758Z,-3.07
2019-01-25T22:39:58.780Z,-3.02
2019-01-25T22:45:04.963Z,-2.97
2019-01-25T22:50:14.571Z,-3.01
2019-01-25T22:55:20.119Z,-3.05
2019-01-25T23:01:18.131Z,-3.02
2019-01-25T23:06:48.738Z,-2.95
2019-01-25T23:11:54.228Z,-2.88
2019-01-25T23:16:59.518Z,-2.75
2019-01-25T23:22:05.048Z,-2.71
2019-01-25T23:27:10.615Z,-2.58
2019-01-25T23:32:15.807Z,-2.55
2019-01-25T23:37:21.302Z,-2.53
2019-01-25T23:42:26.820Z,-2.45
2019-01-25T23:47:32.125Z,-2.40
2019-01-25T23:52:38.597Z,-2.36
2019-01-25T23:57:43.783Z,-2.30
